sensor_id;sensor_type;location;lat;lon;timestamp;pressure;altitude;pressure_sealevel;temperature;humidity
45523;BME280;31254;51.680;5.394;2022-09-21T00:01:27;102651.78;;;12.49;76.45
45523;BME280;31254;51.680;5.394;2022-09-21T00:03:59;102663.50;;;12.51;76.69
45523;BME280;31254;51.680;5.394;2022-09-21T00:06:27;102668.44;;;12.46;76.79
45523;BME280;31254;51.680;5.394;2022-09-21T00:08:55;102648.97;;;12.27;76.62
45523;BME280;31254;51.680;5.394;2022-09-21T00:11:28;102663.03;;;12.33;76.81
45523;BME280;31254;51.680;5.394;2022-09-21T00:13:57;102667.09;;;12.28;76.77
45523;BME280;31254;51.680;5.394;2022-09-21T00:16:27;102663.09;;;12.20;77.08
45523;BME280;31254;51.680;5.394;2022-09-21T00:18:54;102663.78;;;12.11;77.31
45523;BME280;31254;51.680;5.394;2022-09-21T00:21:21;102663.16;;;12.07;77.53
45523;BME280;31254;51.680;5.394;2022-09-21T00:23:47;102656.41;;;12.00;77.59
45523;BME280;31254;51.680;5.394;2022-09-21T00:26:16;102656.19;;;11.91;77.91
45523;BME280;31254;51.680;5.394;2022-09-21T00:28:50;102637.31;;;11.75;78.12
45523;BME280;31254;51.680;5.394;2022-09-21T00:31:20;102661.22;;;11.84;78.07
45523;BME280;31254;51.680;5.394;2022-09-21T00:33:47;102651.22;;;11.71;78.05
45523;BME280;31254;51.680;5.394;2022-09-21T00:36:16;102653.97;;;11.71;78.39
45523;BME280;31254;51.680;5.394;2022-09-21T00:38:44;102670.25;;;11.73;78.35
45523;BME280;31254;51.680;5.394;2022-09-21T00:41:14;102659.66;;;11.68;78.48
45523;BME280;31254;51.680;5.394;2022-09-21T00:43:46;102653.22;;;11.69;78.51
45523;BME280;31254;51.680;5.394;2022-09-21T00:46:26;102666.50;;;11.74;78.51
45523;BME280;31254;51.680;5.394;2022-09-21T00:48:56;102666.50;;;11.74;78.76
45523;BME280;31254;51.680;5.394;2022-09-21T00:51:24;102650.03;;;11.63;78.69
45523;BME280;31254;51.680;5.394;2022-09-21T00:53:53;102666.72;;;11.71;78.76
45523;BME280;31254;51.680;5.394;2022-09-21T00:56:24;102667.63;;;11.71;78.92
45523;BME280;31254;51.680;5.394;2022-09-21T00:58:52;102663.25;;;11.69;78.87
45523;BME280;31254;51.680;5.394;2022-09-21T01:01:23;102666.09;;;11.67;79.17
45523;BME280;31254;51.680;5.394;2022-09-21T01:03:51;102661.84;;;11.63;79.17
45523;BME280;31254;51.680;5.394;2022-09-21T01:06:23;102670.28;;;11.60;79.26
45523;BME280;31254;51.680;5.394;2022-09-21T01:08:55;102662.63;;;11.52;79.26
45523;BME280;31254;51.680;5.394;2022-09-21T01:17:30;102671.84;;;11.39;79.63
45523;BME280;31254;51.680;5.394;2022-09-21T01:20:25;102673.16;;;11.33;79.55
45523;BME280;31254;51.680;5.394;2022-09-21T01:23:11;102673.38;;;11.30;79.95
45523;BME280;31254;51.680;5.394;2022-09-21T01:31:20;102675.88;;;11.20;80.15
45523;BME280;31254;51.680;5.394;2022-09-21T01:33:52;102685.94;;;11.20;80.51
45523;BME280;31254;51.680;5.394;2022-09-21T01:36:27;102663.78;;;11.11;80.33
45523;BME280;31254;51.680;5.394;2022-09-21T01:39:06;102675.34;;;11.15;80.45
45523;BME280;31254;51.680;5.394;2022-09-21T01:41:36;102668.22;;;11.12;80.62
45523;BME280;31254;51.680;5.394;2022-09-21T01:44:27;102672.19;;;11.08;80.69
45523;BME280;31254;51.680;5.394;2022-09-21T01:46:59;102669.78;;;11.04;80.66
45523;BME280;31254;51.680;5.394;2022-09-21T01:49:34;102675.22;;;11.04;80.55
45523;BME280;31254;51.680;5.394;2022-09-21T01:52:12;102675.44;;;11.01;80.93
45523;BME280;31254;51.680;5.394;2022-09-21T01:54:44;102667.69;;;10.94;80.86
45523;BME280;31254;51.680;5.394;2022-09-21T01:57:18;102682.22;;;10.95;80.93
45523;BME280;31254;51.680;5.394;2022-09-21T01:59:53;102674.47;;;10.89;81.44
45523;BME280;31254;51.680;5.394;2022-09-21T02:02:35;102670.06;;;10.86;81.44
45523;BME280;31254;51.680;5.394;2022-09-21T02:05:05;102674.88;;;10.83;81.24
45523;BME280;31254;51.680;5.394;2022-09-21T02:07:34;102669.63;;;10.79;81.26
45523;BME280;31254;51.680;5.394;2022-09-21T02:10:04;102675.31;;;10.76;81.34
45523;BME280;31254;51.680;5.394;2022-09-21T02:12:33;102675.53;;;10.73;81.12
45523;BME280;31254;51.680;5.394;2022-09-21T02:15:00;102674.75;;;10.71;81.49
45523;BME280;31254;51.680;5.394;2022-09-21T02:17:59;102678.56;;;10.69;81.39
45523;BME280;31254;51.680;5.394;2022-09-21T02:20:38;102667.41;;;10.59;81.63
45523;BME280;31254;51.680;5.394;2022-09-21T02:23:36;102659.78;;;10.51;81.47
45523;BME280;31254;51.680;5.394;2022-09-21T02:26:16;102673.06;;;10.56;81.96
45523;BME280;31254;51.680;5.394;2022-09-21T02:28:53;102671.56;;;10.52;81.76
45523;BME280;31254;51.680;5.394;2022-09-21T02:31:48;102677.53;;;10.44;82.08
45523;BME280;31254;51.680;5.394;2022-09-21T02:34:28;102662.56;;;10.37;82.08
45523;BME280;31254;51.680;5.394;2022-09-21T02:37:46;102665.50;;;10.34;81.87
45523;BME280;31254;51.680;5.394;2022-09-21T02:39:58;102667.63;;;10.29;82.03
45523;BME280;31254;51.680;5.394;2022-09-21T02:42:31;102673.84;;;10.31;82.10
45523;BME280;31254;51.680;5.394;2022-09-21T02:45:14;102656.81;;;10.27;82.30
45523;BME280;31254;51.680;5.394;2022-09-21T02:47:52;102666.84;;;10.27;82.21
45523;BME280;31254;51.680;5.394;2022-09-21T02:50:23;102667.16;;;10.22;82.44
45523;BME280;31254;51.680;5.394;2022-09-21T02:52:53;102662.03;;;10.17;82.32
45523;BME280;31254;51.680;5.394;2022-09-21T02:55:23;102671.19;;;10.16;82.52
45523;BME280;31254;51.680;5.394;2022-09-21T02:57:51;102665.94;;;10.13;82.27
45523;BME280;31254;51.680;5.394;2022-09-21T03:00:19;102669.84;;;10.09;82.40
45523;BME280;31254;51.680;5.394;2022-09-21T03:02:53;102673.66;;;10.06;82.21
45523;BME280;31254;51.680;5.394;2022-09-21T03:05:20;102670.06;;;10.06;82.13
45523;BME280;31254;51.680;5.394;2022-09-21T03:07:46;102662.19;;;10.01;82.72
45523;BME280;31254;51.680;5.394;2022-09-21T03:10:13;102663.34;;;9.97;82.76
45523;BME280;31254;51.680;5.394;2022-09-21T03:12:40;102671.53;;;9.97;82.57
45523;BME280;31254;51.680;5.394;2022-09-21T03:15:10;102669.09;;;9.93;82.59
45523;BME280;31254;51.680;5.394;2022-09-21T03:17:36;102676.50;;;9.91;82.15
45523;BME280;31254;51.680;5.394;2022-09-21T03:20:03;102669.72;;;9.83;82.48
45523;BME280;31254;51.680;5.394;2022-09-21T03:22:37;102678.66;;;9.85;82.84
45523;BME280;31254;51.680;5.394;2022-09-21T03:25:04;102677.53;;;9.75;82.80
45523;BME280;31254;51.680;5.394;2022-09-21T03:27:31;102682.00;;;9.76;82.69
45523;BME280;31254;51.680;5.394;2022-09-21T03:29:58;102678.69;;;9.71;83.02
45523;BME280;31254;51.680;5.394;2022-09-21T03:32:30;102667.31;;;9.64;82.72
45523;BME280;31254;51.680;5.394;2022-09-21T03:34:56;102687.06;;;9.68;82.83
45523;BME280;31254;51.680;5.394;2022-09-21T03:37:25;102684.44;;;9.66;82.66
45523;BME280;31254;51.680;5.394;2022-09-21T03:39:52;102682.91;;;9.62;82.56
45523;BME280;31254;51.680;5.394;2022-09-21T03:42:18;102691.84;;;9.64;82.55
45523;BME280;31254;51.680;5.394;2022-09-21T03:44:47;102688.34;;;9.62;82.86
45523;BME280;31254;51.680;5.394;2022-09-21T03:47:14;102682.44;;;9.56;82.94
45523;BME280;31254;51.680;5.394;2022-09-21T03:49:40;102687.97;;;9.54;82.51
45523;BME280;31254;51.680;5.394;2022-09-21T03:52:09;102693.72;;;9.49;82.76
45523;BME280;31254;51.680;5.394;2022-09-21T03:54:35;102691.94;;;9.48;82.83
45523;BME280;31254;51.680;5.394;2022-09-21T03:57:02;102679.91;;;9.38;83.00
45523;BME280;31254;51.680;5.394;2022-09-21T03:59:29;102695.88;;;9.44;83.10
45523;BME280;31254;51.680;5.394;2022-09-21T04:01:55;102685.34;;;9.38;82.87
45523;BME280;31254;51.680;5.394;2022-09-21T04:04:22;102683.00;;;9.32;83.04
45523;BME280;31254;51.680;5.394;2022-09-21T04:06:51;102682.25;;;9.30;83.37
45523;BME280;31254;51.680;5.394;2022-09-21T04:09:18;102680.56;;;9.27;83.23
45523;BME280;31254;51.680;5.394;2022-09-21T04:11:45;102689.41;;;9.31;82.97
45523;BME280;31254;51.680;5.394;2022-09-21T04:14:11;102682.44;;;9.27;82.98
45523;BME280;31254;51.680;5.394;2022-09-21T04:16:38;102692.13;;;9.31;83.59
45523;BME280;31254;51.680;5.394;2022-09-21T04:19:07;102675.03;;;9.14;83.29
45523;BME280;31254;51.680;5.394;2022-09-21T04:21:34;102682.44;;;9.27;83.59
45523;BME280;31254;51.680;5.394;2022-09-21T04:24:00;102684.34;;;9.25;83.40
45523;BME280;31254;51.680;5.394;2022-09-21T04:26:30;102685.16;;;9.27;83.68
45523;BME280;31254;51.680;5.394;2022-09-21T04:28:59;102688.94;;;9.24;83.73
45523;BME280;31254;51.680;5.394;2022-09-21T04:31:27;102689.03;;;9.23;83.93
45523;BME280;31254;51.680;5.394;2022-09-21T04:33:57;102688.84;;;9.26;83.63
45523;BME280;31254;51.680;5.394;2022-09-21T04:36:27;102686.31;;;9.23;83.48
45523;BME280;31254;51.680;5.394;2022-09-21T04:39:01;102691.84;;;9.21;83.66
45523;BME280;31254;51.680;5.394;2022-09-21T04:41:28;102688.44;;;9.18;83.75
45523;BME280;31254;51.680;5.394;2022-09-21T04:43:54;102689.50;;;9.15;83.78
45523;BME280;31254;51.680;5.394;2022-09-21T04:46:23;102679.88;;;9.09;83.94
45523;BME280;31254;51.680;5.394;2022-09-21T04:48:52;102694.09;;;9.14;83.43
45523;BME280;31254;51.680;5.394;2022-09-21T04:51:19;102688.81;;;9.11;83.66
45523;BME280;31254;51.680;5.394;2022-09-21T04:53:45;102695.03;;;9.13;83.65
45523;BME280;31254;51.680;5.394;2022-09-21T04:56:13;102693.59;;;9.08;83.84
45523;BME280;31254;51.680;5.394;2022-09-21T04:58:40;102686.56;;;9.04;83.95
45523;BME280;31254;51.680;5.394;2022-09-21T05:01:07;102709.94;;;9.08;83.81
45523;BME280;31254;51.680;5.394;2022-09-21T05:03:36;102699.22;;;9.05;83.83
45523;BME280;31254;51.680;5.394;2022-09-21T05:06:04;102682.84;;;8.90;83.56
45523;BME280;31254;51.680;5.394;2022-09-21T05:08:31;102702.22;;;9.00;83.76
45523;BME280;31254;51.680;5.394;2022-09-21T05:11:18;102695.13;;;8.98;83.55
45523;BME280;31254;51.680;5.394;2022-09-21T05:13:45;102698.03;;;8.94;83.15
45523;BME280;31254;51.680;5.394;2022-09-21T05:16:17;102707.00;;;8.96;83.26
45523;BME280;31254;51.680;5.394;2022-09-21T05:18:55;102706.13;;;8.96;83.57
45523;BME280;31254;51.680;5.394;2022-09-21T05:21:21;102714.56;;;8.91;83.68
45523;BME280;31254;51.680;5.394;2022-09-21T05:23:48;102717.19;;;8.93;83.25
45523;BME280;31254;51.680;5.394;2022-09-21T05:26:20;102714.28;;;8.96;83.54
45523;BME280;31254;51.680;5.394;2022-09-21T05:28:47;102705.53;;;8.91;83.22
45523;BME280;31254;51.680;5.394;2022-09-21T05:33:52;102722.44;;;8.96;83.38
45523;BME280;31254;51.680;5.394;2022-09-21T05:36:36;102724.28;;;8.95;82.83
45523;BME280;31254;51.680;5.394;2022-09-21T05:39:06;102722.44;;;8.96;82.62
45523;BME280;31254;51.680;5.394;2022-09-21T05:41:33;102727.09;;;8.94;82.44
45523;BME280;31254;51.680;5.394;2022-09-21T05:44:00;102722.81;;;8.90;82.38
45523;BME280;31254;51.680;5.394;2022-09-21T05:46:48;102727.00;;;8.95;82.21
45523;BME280;31254;51.680;5.394;2022-09-21T05:49:30;102719.81;;;8.94;82.36
45523;BME280;31254;51.680;5.394;2022-09-21T05:52:23;102728.59;;;9.00;82.20
45523;BME280;31254;51.680;5.394;2022-09-21T05:55:23;102732.97;;;9.02;82.13
45523;BME280;31254;51.680;5.394;2022-09-21T05:58:15;102732.75;;;9.05;82.13
45523;BME280;31254;51.680;5.394;2022-09-21T06:03:26;102741.53;;;9.10;82.53
45523;BME280;31254;51.680;5.394;2022-09-21T06:05:55;102742.03;;;9.17;82.70
45523;BME280;31254;51.680;5.394;2022-09-21T06:08:23;102744.47;;;9.22;82.39
45523;BME280;31254;51.680;5.394;2022-09-21T06:10:50;102732.50;;;9.24;82.47
45523;BME280;31254;51.680;5.394;2022-09-21T06:13:17;102730.56;;;9.26;81.99
45523;BME280;31254;51.680;5.394;2022-09-21T06:15:46;102740.78;;;9.37;82.08
45523;BME280;31254;51.680;5.394;2022-09-21T06:18:13;102745.00;;;9.43;81.80
45523;BME280;31254;51.680;5.394;2022-09-21T06:20:43;102745.66;;;9.46;81.91
45523;BME280;31254;51.680;5.394;2022-09-21T06:23:11;102738.38;;;9.47;81.76
45523;BME280;31254;51.680;5.394;2022-09-21T06:25:41;102749.47;;;9.58;81.62
45523;BME280;31254;51.680;5.394;2022-09-21T06:28:10;102748.97;;;9.66;81.92
45523;BME280;31254;51.680;5.394;2022-09-21T06:30:38;102747.03;;;9.68;81.70
45523;BME280;31254;51.680;5.394;2022-09-21T06:33:08;102744.00;;;9.73;81.70
45523;BME280;31254;51.680;5.394;2022-09-21T06:35:35;102734.88;;;9.74;81.87
45523;BME280;31254;51.680;5.394;2022-09-21T06:38:06;102742.53;;;9.81;81.95
45523;BME280;31254;51.680;5.394;2022-09-21T06:40:37;102745.97;;;9.85;81.66
45523;BME280;31254;51.680;5.394;2022-09-21T06:43:04;102734.97;;;9.86;82.04
45523;BME280;31254;51.680;5.394;2022-09-21T06:45:30;102746.13;;;9.96;81.87
45523;BME280;31254;51.680;5.394;2022-09-21T06:47:59;102747.78;;;9.99;81.87
45523;BME280;31254;51.680;5.394;2022-09-21T06:50:26;102748.34;;;10.04;82.03
45523;BME280;31254;51.680;5.394;2022-09-21T06:52:52;102744.56;;;10.06;81.71
45523;BME280;31254;51.680;5.394;2022-09-21T06:55:19;102742.59;;;10.09;81.76
45523;BME280;31254;51.680;5.394;2022-09-21T06:57:46;102749.97;;;10.21;82.33
45523;BME280;31254;51.680;5.394;2022-09-21T07:00:13;102745.19;;;10.24;81.86
45523;BME280;31254;51.680;5.394;2022-09-21T07:02:43;102750.75;;;10.37;81.83
45523;BME280;31254;51.680;5.394;2022-09-21T07:05:11;102747.50;;;10.45;82.04
45523;BME280;31254;51.680;5.394;2022-09-21T07:07:38;102754.28;;;10.52;82.04
45523;BME280;31254;51.680;5.394;2022-09-21T07:10:06;102733.66;;;10.48;81.80
45523;BME280;31254;51.680;5.394;2022-09-21T07:12:42;102756.00;;;10.68;81.95
45523;BME280;31254;51.680;5.394;2022-09-21T07:15:10;102751.84;;;10.75;81.99
45523;BME280;31254;51.680;5.394;2022-09-21T07:17:38;102750.22;;;10.85;81.37
45523;BME280;31254;51.680;5.394;2022-09-21T07:20:06;102743.38;;;10.92;81.62
45523;BME280;31254;51.680;5.394;2022-09-21T07:22:34;102737.72;;;10.95;81.41
45523;BME280;31254;51.680;5.394;2022-09-21T07:25:04;102746.69;;;11.10;81.34
45523;BME280;31254;51.680;5.394;2022-09-21T07:27:33;102747.88;;;11.19;81.35
45523;BME280;31254;51.680;5.394;2022-09-21T07:30:00;102735.13;;;11.20;81.23
45523;BME280;31254;51.680;5.394;2022-09-21T07:32:27;102744.09;;;11.34;81.02
45523;BME280;31254;51.680;5.394;2022-09-21T07:34:54;102746.16;;;11.44;81.01
45523;BME280;31254;51.680;5.394;2022-09-21T07:37:24;102742.00;;;11.51;81.20
45523;BME280;31254;51.680;5.394;2022-09-21T07:39:51;102747.69;;;11.61;80.69
45523;BME280;31254;51.680;5.394;2022-09-21T07:42:19;102751.84;;;11.66;80.92
45523;BME280;31254;51.680;5.394;2022-09-21T07:44:51;102749.44;;;11.75;80.57
45523;BME280;31254;51.680;5.394;2022-09-21T07:47:29;102754.19;;;11.84;80.37
45523;BME280;31254;51.680;5.394;2022-09-21T07:49:56;102741.09;;;11.89;80.35
45523;BME280;31254;51.680;5.394;2022-09-21T07:52:23;102758.59;;;11.99;80.12
45523;BME280;31254;51.680;5.394;2022-09-21T07:54:50;102742.81;;;12.03;80.09
45523;BME280;31254;51.680;5.394;2022-09-21T07:57:16;102755.03;;;12.23;79.91
45523;BME280;31254;51.680;5.394;2022-09-21T08:00:03;102738.31;;;14.13;73.25
45523;BME280;31254;51.680;5.394;2022-09-21T08:02:29;102736.72;;;17.86;61.69
45523;BME280;31254;51.680;5.394;2022-09-21T08:04:56;102730.22;;;20.18;54.52
45523;BME280;31254;51.680;5.394;2022-09-21T08:07:28;102732.47;;;20.73;53.05
45523;BME280;31254;51.680;5.394;2022-09-21T08:09:54;102734.44;;;21.70;50.57
45523;BME280;31254;51.680;5.394;2022-09-21T08:12:23;102725.34;;;21.92;47.89
45523;BME280;31254;51.680;5.394;2022-09-21T08:14:50;102728.41;;;23.15;46.23
45523;BME280;31254;51.680;5.394;2022-09-21T08:17:17;102726.34;;;23.62;45.55
45523;BME280;31254;51.680;5.394;2022-09-21T08:19:43;102718.75;;;23.85;44.61
45523;BME280;31254;51.680;5.394;2022-09-21T08:22:10;102731.53;;;23.80;45.09
45523;BME280;31254;51.680;5.394;2022-09-21T08:24:37;102728.06;;;23.63;45.57
45523;BME280;31254;51.680;5.394;2022-09-21T08:27:05;102733.81;;;23.46;45.44
45523;BME280;31254;51.680;5.394;2022-09-21T08:29:33;102736.25;;;23.94;44.73
45523;BME280;31254;51.680;5.394;2022-09-21T08:32:02;102740.13;;;24.66;43.25
45523;BME280;31254;51.680;5.394;2022-09-21T08:34:31;102723.41;;;24.66;43.00
45523;BME280;31254;51.680;5.394;2022-09-21T08:37:00;102741.41;;;24.49;43.57
45523;BME280;31254;51.680;5.394;2022-09-21T08:39:27;102738.78;;;24.25;43.95
45523;BME280;31254;51.680;5.394;2022-09-21T08:42:03;102739.34;;;24.36;43.88
45523;BME280;31254;51.680;5.394;2022-09-21T08:44:44;102734.88;;;24.78;43.38
45523;BME280;31254;51.680;5.394;2022-09-21T08:47:34;102741.81;;;24.82;43.93
45523;BME280;31254;51.680;5.394;2022-09-21T08:50:04;102741.13;;;23.77;44.19
45523;BME280;31254;51.680;5.394;2022-09-21T08:52:39;102745.03;;;23.38;45.61
45523;BME280;31254;51.680;5.394;2022-09-21T08:55:15;102736.41;;;23.63;45.38
45523;BME280;31254;51.680;5.394;2022-09-21T08:57:43;102745.13;;;23.30;45.89
45523;BME280;31254;51.680;5.394;2022-09-21T09:00:14;102736.56;;;22.70;46.94
45523;BME280;31254;51.680;5.394;2022-09-21T09:03:07;102748.56;;;22.39;47.76
45523;BME280;31254;51.680;5.394;2022-09-21T09:16:38;102758.44;;;21.54;50.16
45523;BME280;31254;51.680;5.394;2022-09-21T09:21:49;102752.53;;;21.66;49.84
45523;BME280;31254;51.680;5.394;2022-09-21T09:24:34;102750.66;;;21.50;50.48
45523;BME280;31254;51.680;5.394;2022-09-21T09:27:08;102765.69;;;21.64;49.86
45523;BME280;31254;51.680;5.394;2022-09-21T09:35:35;102757.06;;;21.17;50.34
45523;BME280;31254;51.680;5.394;2022-09-21T09:38:20;102753.16;;;20.44;52.16
45523;BME280;31254;51.680;5.394;2022-09-21T09:52:04;102773.50;;;20.11;52.86
45523;BME280;31254;51.680;5.394;2022-09-21T09:54:35;102765.88;;;19.52;53.72
45523;BME280;31254;51.680;5.394;2022-09-21T09:57:03;102761.38;;;19.25;54.46
45523;BME280;31254;51.680;5.394;2022-09-21T09:59:43;102765.63;;;19.19;54.91
45523;BME280;31254;51.680;5.394;2022-09-21T10:02:22;102769.28;;;19.20;54.36
45523;BME280;31254;51.680;5.394;2022-09-21T10:05:00;102762.78;;;19.11;54.14
45523;BME280;31254;51.680;5.394;2022-09-21T10:07:37;102768.41;;;19.01;54.79
45523;BME280;31254;51.680;5.394;2022-09-21T10:10:30;102760.41;;;18.80;55.58
45523;BME280;31254;51.680;5.394;2022-09-21T10:15:32;102760.94;;;18.48;55.64
45523;BME280;31254;51.680;5.394;2022-09-21T10:18:06;102762.53;;;18.50;55.79
45523;BME280;31254;51.680;5.394;2022-09-21T10:20:39;102767.34;;;18.48;55.51
45523;BME280;31254;51.680;5.394;2022-09-21T10:23:17;102755.56;;;18.46;55.56
45523;BME280;31254;51.680;5.394;2022-09-21T10:25:52;102763.47;;;18.41;55.18
45523;BME280;31254;51.680;5.394;2022-09-21T10:28:21;102748.56;;;18.52;54.90
45523;BME280;31254;51.680;5.394;2022-09-21T10:30:51;102757.19;;;18.67;54.68
45523;BME280;31254;51.680;5.394;2022-09-21T10:33:52;102744.53;;;18.46;53.57
45523;BME280;31254;51.680;5.394;2022-09-21T10:36:36;102749.50;;;18.78;53.96
45523;BME280;31254;51.680;5.394;2022-09-21T10:39:21;102734.53;;;18.99;53.56
45523;BME280;31254;51.680;5.394;2022-09-21T10:41:50;102739.97;;;19.09;53.98
45523;BME280;31254;51.680;5.394;2022-09-21T10:44:22;102737.63;;;18.96;54.34
45523;BME280;31254;51.680;5.394;2022-09-21T10:46:53;102737.22;;;18.91;54.29
45523;BME280;31254;51.680;5.394;2022-09-21T10:49:25;102740.91;;;18.99;54.47
45523;BME280;31254;51.680;5.394;2022-09-21T10:51:56;102733.47;;;18.82;54.17
45523;BME280;31254;51.680;5.394;2022-09-21T10:54:30;102740.38;;;18.60;54.74
45523;BME280;31254;51.680;5.394;2022-09-21T10:57:02;102734.59;;;18.53;54.59
45523;BME280;31254;51.680;5.394;2022-09-21T10:59:35;102742.59;;;18.74;54.25
45523;BME280;31254;51.680;5.394;2022-09-21T11:02:40;102736.44;;;18.98;53.88
45523;BME280;31254;51.680;5.394;2022-09-21T11:05:15;102725.28;;;19.08;52.81
45523;BME280;31254;51.680;5.394;2022-09-21T11:08:13;102732.81;;;19.24;52.26
45523;BME280;31254;51.680;5.394;2022-09-21T11:14:00;102732.25;;;19.47;46.97
45523;BME280;31254;51.680;5.394;2022-09-21T11:16:37;102732.66;;;19.78;46.21
45523;BME280;31254;51.680;5.394;2022-09-21T11:28:15;102724.16;;;20.73;45.49
45523;BME280;31254;51.680;5.394;2022-09-21T11:31:20;102725.84;;;21.07;45.40
45523;BME280;31254;51.680;5.394;2022-09-21T11:45:03;102701.72;;;20.58;44.05
45523;BME280;31254;51.680;5.394;2022-09-21T11:55:39;102705.72;;;20.56;43.79
45523;BME280;31254;51.680;5.394;2022-09-21T11:58:24;102701.84;;;20.32;42.40
45523;BME280;31254;51.680;5.394;2022-09-21T12:09:24;102694.97;;;21.27;42.32
45523;BME280;31254;51.680;5.394;2022-09-21T12:14:39;102678.81;;;21.39;41.36
45523;BME280;31254;51.680;5.394;2022-09-21T12:17:16;102685.25;;;21.23;41.78
45523;BME280;31254;51.680;5.394;2022-09-21T12:22:36;102672.44;;;21.05;42.74
45523;BME280;31254;51.680;5.394;2022-09-21T12:30:46;102663.34;;;21.52;42.68
45523;BME280;31254;51.680;5.394;2022-09-21T12:36:29;102661.72;;;22.60;40.92
45523;BME280;31254;51.680;5.394;2022-09-21T12:39:28;102655.19;;;22.91;39.84
45523;BME280;31254;51.680;5.394;2022-09-21T12:42:03;102657.75;;;23.16;38.98
45523;BME280;31254;51.680;5.394;2022-09-21T12:44:34;102651.94;;;23.03;36.86
45523;BME280;31254;51.680;5.394;2022-09-21T12:47:54;102654.00;;;23.68;38.12
45523;BME280;31254;51.680;5.394;2022-09-21T12:50:26;102651.31;;;23.15;37.67
45523;BME280;31254;51.680;5.394;2022-09-21T12:52:57;102648.22;;;22.72;38.36
45523;BME280;31254;51.680;5.394;2022-09-21T12:55:45;102638.59;;;22.37;38.49
45523;BME280;31254;51.680;5.394;2022-09-21T13:01:01;102633.16;;;22.67;38.66
45523;BME280;31254;51.680;5.394;2022-09-21T13:04:00;102636.97;;;22.66;38.96
45523;BME280;31254;51.680;5.394;2022-09-21T13:09:25;102637.09;;;21.63;40.76
45523;BME280;31254;51.680;5.394;2022-09-21T13:11:59;102645.31;;;21.48;41.13
45523;BME280;31254;51.680;5.394;2022-09-21T13:14:34;102632.53;;;21.23;41.95
45523;BME280;31254;51.680;5.394;2022-09-21T13:17:04;102636.53;;;21.12;41.94
45523;BME280;31254;51.680;5.394;2022-09-21T13:19:33;102642.97;;;20.96;42.65
45523;BME280;31254;51.680;5.394;2022-09-21T13:24:42;102642.47;;;20.51;42.45
45523;BME280;31254;51.680;5.394;2022-09-21T13:27:13;102637.94;;;20.42;42.98
45523;BME280;31254;51.680;5.394;2022-09-21T13:29:41;102638.78;;;20.26;42.70
45523;BME280;31254;51.680;5.394;2022-09-21T13:34:43;102632.53;;;20.07;43.54
45523;BME280;31254;51.680;5.394;2022-09-21T13:47:50;102632.03;;;20.04;42.76
45523;BME280;31254;51.680;5.394;2022-09-21T13:50:31;102629.06;;;19.97;42.08
45523;BME280;31254;51.680;5.394;2022-09-21T13:53:05;102606.50;;;19.84;42.34
45523;BME280;31254;51.680;5.394;2022-09-21T13:55:36;102626.97;;;19.91;41.81
45523;BME280;31254;51.680;5.394;2022-09-21T13:58:31;102618.19;;;20.04;42.26
45523;BME280;31254;51.680;5.394;2022-09-21T14:01:21;102621.66;;;20.22;42.53
45523;BME280;31254;51.680;5.394;2022-09-21T14:04:24;102618.03;;;20.30;42.44
45523;BME280;31254;51.680;5.394;2022-09-21T14:06:54;102614.25;;;20.48;42.04
45523;BME280;31254;51.680;5.394;2022-09-21T14:09:30;102608.72;;;20.72;42.26
45523;BME280;31254;51.680;5.394;2022-09-21T14:12:07;102593.41;;;20.85;41.56
45523;BME280;31254;51.680;5.394;2022-09-21T14:14:39;102599.78;;;21.10;41.44
45523;BME280;31254;51.680;5.394;2022-09-21T14:17:37;102601.13;;;21.30;41.78
45523;BME280;31254;51.680;5.394;2022-09-21T14:20:24;102587.25;;;21.30;40.81
45523;BME280;31254;51.680;5.394;2022-09-21T14:28:14;102594.69;;;21.30;40.21
45523;BME280;31254;51.680;5.394;2022-09-21T14:30:50;102586.41;;;21.13;40.14
45523;BME280;31254;51.680;5.394;2022-09-21T14:33:27;102593.88;;;21.21;40.49
45523;BME280;31254;51.680;5.394;2022-09-21T14:35:55;102586.94;;;21.25;40.69
45523;BME280;31254;51.680;5.394;2022-09-21T14:38:28;102592.75;;;21.39;40.69
45523;BME280;31254;51.680;5.394;2022-09-21T14:41:02;102578.34;;;21.51;40.75
45523;BME280;31254;51.680;5.394;2022-09-21T14:43:34;102586.84;;;21.50;40.29
45523;BME280;31254;51.680;5.394;2022-09-21T14:48:49;102582.31;;;21.49;39.91
45523;BME280;31254;51.680;5.394;2022-09-21T14:54:03;102573.47;;;21.53;40.32
45523;BME280;31254;51.680;5.394;2022-09-21T14:57:04;102569.25;;;21.66;40.36
45523;BME280;31254;51.680;5.394;2022-09-21T14:59:41;102580.00;;;21.69;40.53
45523;BME280;31254;51.680;5.394;2022-09-21T15:02:21;102561.28;;;21.63;40.09
45523;BME280;31254;51.680;5.394;2022-09-21T15:11:19;102573.16;;;20.84;40.51
45523;BME280;31254;51.680;5.394;2022-09-21T15:16:37;102568.16;;;20.38;41.50
45523;BME280;31254;51.680;5.394;2022-09-21T15:19:21;102547.69;;;20.15;41.89
45523;BME280;31254;51.680;5.394;2022-09-21T15:21:50;102549.97;;;20.11;42.19
45523;BME280;31254;51.680;5.394;2022-09-21T15:24:31;102549.63;;;20.06;42.05
45523;BME280;31254;51.680;5.394;2022-09-21T15:27:13;102545.59;;;19.92;41.74
45523;BME280;31254;51.680;5.394;2022-09-21T15:29:46;102549.25;;;19.93;41.70
45523;BME280;31254;51.680;5.394;2022-09-21T15:32:35;102539.38;;;19.82;41.81
45523;BME280;31254;51.680;5.394;2022-09-21T15:35:14;102546.59;;;19.75;42.20
45523;BME280;31254;51.680;5.394;2022-09-21T15:37:41;102546.22;;;19.69;42.12
45523;BME280;31254;51.680;5.394;2022-09-21T15:40:18;102502.19;;;19.33;42.63
45523;BME280;31254;51.680;5.394;2022-09-21T15:43:03;102554.13;;;19.48;42.69
45523;BME280;31254;51.680;5.394;2022-09-21T15:48:27;102548.03;;;19.36;42.80
45523;BME280;31254;51.680;5.394;2022-09-21T15:51:16;102542.34;;;19.38;43.26
45523;BME280;31254;51.680;5.394;2022-09-21T15:53:53;102545.44;;;19.34;42.49